Time;durP1;ratioP1;P1;durP2;ratioP2;P2;SDS_P1;SDS_P2;PMS_P1;PMS_P2;Temp;Humidity;BMP_temperature;BMP_pressure;BME280_temperature;BME280_humidity;BME280_pressure;Samples;Min_cycle;Max_cycle;Signal;HPM_P1;HPM_P2
2022/10/20 00:00:22;;;;;;;149.90;87.10;;;;;;;;;;4992455;28;21296;-36
2022/10/20 00:02:48;;;;;;;133.60;81.53;;;;;;;;;;4991050;28;20930;-36
2022/10/20 00:05:14;;;;;;;129.33;76.67;;;;;;;;;;4992056;28;20606;-37
2022/10/20 00:07:40;;;;;;;129.17;78.87;;;;;;;;;;4990913;28;20286;-35
2022/10/20 00:10:07;;;;;;;134.17;81.27;;;;;;;;;;4993679;28;20192;-34
2022/10/20 00:12:33;;;;;;;124.20;74.90;;;;;;;;;;4993131;28;20728;-35
2022/10/20 00:14:59;;;;;;;140.13;80.17;;;;;;;;;;4982017;28;20504;-35
2022/10/20 00:17:25;;;;;;;149.00;84.87;;;;;;;;;;4996491;28;20691;-35
2022/10/20 00:19:51;;;;;;;142.20;84.20;;;;;;;;;;4990662;28;20622;-35
2022/10/20 00:22:17;;;;;;;145.40;84.10;;;;;;;;;;4995669;28;20187;-35
2022/10/20 00:24:43;;;;;;;136.73;77.53;;;;;;;;;;5003051;28;20701;-35
2022/10/20 00:27:09;;;;;;;133.70;83.37;;;;;;;;;;4999864;28;20191;-35
2022/10/20 00:29:35;;;;;;;137.47;83.03;;;;;;;;;;4994774;28;20315;-35
2022/10/20 00:32:01;;;;;;;139.37;83.07;;;;;;;;;;4991835;28;20519;-34
2022/10/20 00:34:27;;;;;;;137.23;82.27;;;;;;;;;;4996266;28;20179;-35
2022/10/20 00:36:53;;;;;;;133.70;80.27;;;;;;;;;;4996993;28;20458;-36
2022/10/20 00:39:19;;;;;;;130.47;77.20;;;;;;;;;;4995464;28;20486;-35
2022/10/20 00:41:45;;;;;;;125.37;79.03;;;;;;;;;;4994984;28;20436;-35
2022/10/20 00:44:30;;;;;;;125.13;75.87;;;;;;;;;;4997143;28;20188;-36
2022/10/20 00:46:57;;;;;;;146.20;85.30;;;;;;;;;;4993609;28;20399;-35
2022/10/20 00:49:25;;;;;;;141.33;82.60;;;;;;;;;;4995769;28;20231;-35
2022/10/20 00:51:52;;;;;;;145.33;85.00;;;;;;;;;;4997096;28;20181;-34
2022/10/20 00:54:21;;;;;;;148.17;84.43;;;;;;;;;;4994363;28;20582;-35
2022/10/20 00:56:48;;;;;;;149.77;87.23;;;;;;;;;;4998805;28;20238;-35
2022/10/20 00:59:16;;;;;;;142.47;84.63;;;;;;;;;;4993699;28;20561;-35
2022/10/20 01:01:42;;;;;;;123.60;74.73;;;;;;;;;;4987596;28;20188;-35
2022/10/20 01:04:09;;;;;;;139.47;83.90;;;;;;;;;;4991754;28;20184;-34
2022/10/20 01:06:35;;;;;;;131.37;78.73;;;;;;;;;;4992787;28;20185;-35
2022/10/20 01:09:01;;;;;;;131.17;80.37;;;;;;;;;;4990990;28;20196;-36
2022/10/20 01:11:33;;;;;;;133.30;80.80;;;;;;;;;;4994755;28;20195;-35
2022/10/20 01:14:18;;;;;;;131.07;77.23;;;;;;;;;;4993764;28;20600;-35
2022/10/20 01:16:54;;;;;;;151.20;84.60;;;;;;;;;;4989547;28;20267;-35
2022/10/20 01:19:51;;;;;;;144.60;82.27;;;;;;;;;;4993076;28;20176;-35
2022/10/20 01:22:24;;;;;;;141.10;81.53;;;;;;;;;;4996360;28;20264;-36
2022/10/20 01:24:53;;;;;;;159.27;91.03;;;;;;;;;;4996559;28;20674;-35
2022/10/20 01:27:27;;;;;;;145.40;84.77;;;;;;;;;;4989372;28;20290;-35
2022/10/20 01:30:02;;;;;;;132.10;78.93;;;;;;;;;;4992462;28;20211;-35
2022/10/20 01:32:48;;;;;;;134.17;82.70;;;;;;;;;;4994620;28;20243;-35
2022/10/20 01:35:21;;;;;;;130.03;78.07;;;;;;;;;;4988845;28;20188;-35
2022/10/20 01:37:52;;;;;;;127.37;77.33;;;;;;;;;;4995055;28;20177;-35
2022/10/20 01:40:26;;;;;;;135.80;79.70;;;;;;;;;;4996124;28;20301;-34
2022/10/20 01:42:54;;;;;;;137.27;80.00;;;;;;;;;;4994169;28;20775;-36
2022/10/20 01:45:21;;;;;;;135.87;77.87;;;;;;;;;;4996394;28;20180;-36
2022/10/20 01:47:48;;;;;;;132.30;79.80;;;;;;;;;;4991826;28;20573;-36
2022/10/20 01:50:15;;;;;;;129.13;76.00;;;;;;;;;;4990646;28;20208;-35
2022/10/20 01:52:41;;;;;;;128.50;76.90;;;;;;;;;;5001004;28;20692;-36
2022/10/20 01:55:15;;;;;;;130.73;77.57;;;;;;;;;;4997735;28;20292;-36
2022/10/20 01:57:41;;;;;;;131.50;77.20;;;;;;;;;;4993987;28;20641;-36
2022/10/20 02:00:09;;;;;;;120.50;74.43;;;;;;;;;;4990291;28;20184;-36
2022/10/20 02:02:41;;;;;;;148.83;83.03;;;;;;;;;;4992551;28;20188;-36
2022/10/20 02:05:10;;;;;;;125.33;77.20;;;;;;;;;;4989806;28;20918;-36
2022/10/20 02:07:37;;;;;;;126.83;74.37;;;;;;;;;;4994196;28;21191;-36
2022/10/20 02:10:09;;;;;;;135.77;79.30;;;;;;;;;;4995746;28;20200;-36
2022/10/20 02:12:38;;;;;;;141.27;81.57;;;;;;;;;;4994377;28;20524;-35
2022/10/20 02:15:05;;;;;;;128.27;76.63;;;;;;;;;;4990866;28;20181;-36
2022/10/20 02:17:32;;;;;;;136.00;76.93;;;;;;;;;;4990106;28;20183;-36
2022/10/20 02:19:59;;;;;;;146.63;85.47;;;;;;;;;;4993046;28;20259;-36
2022/10/20 02:22:25;;;;;;;144.37;82.90;;;;;;;;;;4995495;28;20199;-36
2022/10/20 02:24:51;;;;;;;150.90;83.77;;;;;;;;;;4987607;28;20717;-35
2022/10/20 02:27:24;;;;;;;129.50;78.73;;;;;;;;;;4994747;28;20227;-36
2022/10/20 02:29:54;;;;;;;122.13;74.20;;;;;;;;;;4995183;28;20476;-36
2022/10/20 02:32:21;;;;;;;133.70;80.80;;;;;;;;;;4993531;28;20766;-36
2022/10/20 02:34:47;;;;;;;137.30;80.37;;;;;;;;;;4992085;28;20195;-36
2022/10/20 02:37:13;;;;;;;133.20;79.37;;;;;;;;;;4996565;28;20491;-36
2022/10/20 02:39:39;;;;;;;131.07;77.93;;;;;;;;;;4992573;28;20611;-36
2022/10/20 02:42:05;;;;;;;127.70;74.50;;;;;;;;;;4996927;28;20177;-36
2022/10/20 02:44:32;;;;;;;133.60;78.03;;;;;;;;;;4990812;28;20387;-36
2022/10/20 02:46:58;;;;;;;132.03;77.00;;;;;;;;;;4986721;28;20530;-35
2022/10/20 02:49:24;;;;;;;123.80;71.77;;;;;;;;;;4993106;28;20710;-36
2022/10/20 02:51:50;;;;;;;137.63;78.97;;;;;;;;;;4998509;28;20251;-36
2022/10/20 02:54:16;;;;;;;113.80;69.60;;;;;;;;;;4987643;28;20177;-35
2022/10/20 02:56:43;;;;;;;117.53;71.00;;;;;;;;;;4993951;28;20177;-35
2022/10/20 02:59:12;;;;;;;131.13;77.17;;;;;;;;;;4992837;28;20294;-36
2022/10/20 03:01:38;;;;;;;118.30;71.50;;;;;;;;;;4986845;28;20181;-36
2022/10/20 03:04:04;;;;;;;119.03;70.37;;;;;;;;;;4995152;28;20270;-35
2022/10/20 03:06:30;;;;;;;121.90;72.47;;;;;;;;;;4995115;28;20632;-36
2022/10/20 03:08:56;;;;;;;122.57;71.40;;;;;;;;;;4990932;28;20254;-36
2022/10/20 03:11:22;;;;;;;133.97;78.13;;;;;;;;;;4989997;28;20590;-36
2022/10/20 03:13:48;;;;;;;118.47;72.33;;;;;;;;;;4987021;28;20597;-36
2022/10/20 03:16:15;;;;;;;119.57;71.53;;;;;;;;;;4989759;28;20853;-36
2022/10/20 03:18:41;;;;;;;129.23;74.23;;;;;;;;;;4990919;28;20188;-36
2022/10/20 03:21:07;;;;;;;128.90;74.50;;;;;;;;;;4989617;28;20743;-36
2022/10/20 03:23:33;;;;;;;131.03;75.23;;;;;;;;;;4996223;28;20387;-36
2022/10/20 03:26:06;;;;;;;120.93;73.43;;;;;;;;;;4994523;28;20185;-35
2022/10/20 03:28:32;;;;;;;142.33;81.13;;;;;;;;;;4987727;28;20204;-36
2022/10/20 03:30:58;;;;;;;140.90;77.97;;;;;;;;;;4987642;28;20331;-36
2022/10/20 03:33:25;;;;;;;120.93;72.23;;;;;;;;;;4995675;28;20648;-35
2022/10/20 03:35:51;;;;;;;133.23;75.43;;;;;;;;;;4987653;28;20191;-36
2022/10/20 03:38:17;;;;;;;139.83;76.73;;;;;;;;;;4993373;28;20890;-35
2022/10/20 03:40:43;;;;;;;124.67;74.97;;;;;;;;;;5002215;28;20223;-36
2022/10/20 03:43:09;;;;;;;122.40;72.77;;;;;;;;;;4992818;28;20185;-35
2022/10/20 03:45:36;;;;;;;123.27;73.33;;;;;;;;;;4994553;28;20806;-36
2022/10/20 03:48:02;;;;;;;125.50;74.10;;;;;;;;;;4995957;28;20505;-36
2022/10/20 03:50:28;;;;;;;130.07;73.80;;;;;;;;;;4997839;28;20220;-36
2022/10/20 03:52:54;;;;;;;116.50;69.53;;;;;;;;;;5000430;28;20177;-36
2022/10/20 03:55:20;;;;;;;125.63;73.97;;;;;;;;;;4991533;28;20247;-36
2022/10/20 03:57:46;;;;;;;120.73;73.33;;;;;;;;;;4995404;28;20648;-35
2022/10/20 04:00:12;;;;;;;123.93;72.77;;;;;;;;;;4992799;28;20177;-36
2022/10/20 04:02:43;;;;;;;118.47;69.47;;;;;;;;;;4996443;28;20481;-36
2022/10/20 04:05:12;;;;;;;127.47;74.70;;;;;;;;;;4997757;28;20672;-36
2022/10/20 04:07:38;;;;;;;126.30;74.67;;;;;;;;;;4994961;28;20276;-35
2022/10/20 04:10:04;;;;;;;123.13;72.13;;;;;;;;;;4989907;28;20784;-36
2022/10/20 04:12:31;;;;;;;132.87;79.33;;;;;;;;;;4994208;28;20177;-35
2022/10/20 04:14:57;;;;;;;117.80;71.40;;;;;;;;;;4992442;28;20194;-36
2022/10/20 04:17:23;;;;;;;133.60;77.50;;;;;;;;;;4989154;28;20684;-35
2022/10/20 04:19:49;;;;;;;116.93;69.00;;;;;;;;;;5003760;28;20608;-35
2022/10/20 04:22:15;;;;;;;129.40;75.50;;;;;;;;;;4998312;28;20185;-35
2022/10/20 04:24:41;;;;;;;123.50;74.03;;;;;;;;;;4990558;28;20490;-35
2022/10/20 04:27:08;;;;;;;132.43;79.27;;;;;;;;;;4996191;28;20180;-35
2022/10/20 04:29:34;;;;;;;119.90;71.67;;;;;;;;;;4996684;28;20659;-35
2022/10/20 04:32:00;;;;;;;121.57;69.73;;;;;;;;;;4984339;28;20237;-35
2022/10/20 04:34:26;;;;;;;139.50;77.30;;;;;;;;;;4996437;28;20179;-35
2022/10/20 04:36:52;;;;;;;137.97;77.37;;;;;;;;;;4990920;28;20181;-35
2022/10/20 04:39:18;;;;;;;117.70;69.07;;;;;;;;;;4996573;28;20259;-35
2022/10/20 04:41:44;;;;;;;115.13;68.30;;;;;;;;;;4987600;28;20612;-35
2022/10/20 04:44:10;;;;;;;120.73;70.67;;;;;;;;;;4986978;28;20184;-36
2022/10/20 04:46:36;;;;;;;131.43;74.83;;;;;;;;;;4994691;28;20770;-35
2022/10/20 04:49:03;;;;;;;124.37;72.83;;;;;;;;;;4987619;28;20200;-35
2022/10/20 04:51:29;;;;;;;142.57;78.40;;;;;;;;;;4990326;28;20173;-36
2022/10/20 04:53:55;;;;;;;133.43;75.27;;;;;;;;;;4988726;28;20173;-36
2022/10/20 04:56:22;;;;;;;152.43;82.63;;;;;;;;;;4990140;28;20487;-35
2022/10/20 04:58:52;;;;;;;140.33;78.00;;;;;;;;;;4991282;28;20625;-36
2022/10/20 05:01:18;;;;;;;151.90;82.53;;;;;;;;;;4995806;28;20408;-36
2022/10/20 05:03:45;;;;;;;150.10;81.67;;;;;;;;;;4997015;28;20755;-36
2022/10/20 05:06:12;;;;;;;131.43;73.50;;;;;;;;;;4983197;28;20268;-35
2022/10/20 05:08:39;;;;;;;141.47;76.73;;;;;;;;;;4992379;28;20197;-36
2022/10/20 05:11:05;;;;;;;133.10;74.17;;;;;;;;;;4987075;28;20169;-36
2022/10/20 05:13:31;;;;;;;133.73;73.20;;;;;;;;;;4992834;28;20182;-36
2022/10/20 05:15:57;;;;;;;120.30;71.90;;;;;;;;;;4936840;28;20218;-35
2022/10/20 05:18:23;;;;;;;123.63;71.57;;;;;;;;;;4951522;28;20178;-35
2022/10/20 05:20:49;;;;;;;132.47;74.73;;;;;;;;;;4956566;28;20185;-36
2022/10/20 05:23:15;;;;;;;120.43;66.63;;;;;;;;;;4949961;28;20587;-36
2022/10/20 05:25:41;;;;;;;122.33;70.33;;;;;;;;;;4946702;28;20745;-36
2022/10/20 05:28:07;;;;;;;125.13;67.13;;;;;;;;;;4953628;28;20680;-36
2022/10/20 05:30:35;;;;;;;137.73;72.83;;;;;;;;;;4953749;28;20190;-36
2022/10/20 05:33:01;;;;;;;123.77;67.50;;;;;;;;;;4949749;28;20293;-35
2022/10/20 05:35:28;;;;;;;115.80;66.33;;;;;;;;;;4948731;28;20382;-35
2022/10/20 05:37:54;;;;;;;133.87;70.00;;;;;;;;;;4941502;28;20174;-35
2022/10/20 05:40:20;;;;;;;136.30;73.20;;;;;;;;;;4950614;28;20413;-35
2022/10/20 05:42:46;;;;;;;122.77;67.50;;;;;;;;;;4957113;28;20170;-36
2022/10/20 05:45:12;;;;;;;110.97;65.40;;;;;;;;;;4953846;28;20366;-35
2022/10/20 05:47:38;;;;;;;112.40;64.30;;;;;;;;;;4961012;28;20253;-36
2022/10/20 05:50:05;;;;;;;139.60;74.53;;;;;;;;;;4954323;28;20248;-36
2022/10/20 05:52:31;;;;;;;123.87;70.17;;;;;;;;;;4951811;28;20588;-36
2022/10/20 05:54:58;;;;;;;136.90;72.67;;;;;;;;;;4955227;28;20182;-36
2022/10/20 05:57:24;;;;;;;118.07;67.87;;;;;;;;;;4958196;28;20624;-36
2022/10/20 05:59:50;;;;;;;143.37;75.70;;;;;;;;;;4954095;28;21473;-35
2022/10/20 06:02:16;;;;;;;143.27;76.20;;;;;;;;;;4953596;28;20213;-36
2022/10/20 06:04:42;;;;;;;128.03;69.77;;;;;;;;;;4957740;28;20654;-36
2022/10/20 06:07:09;;;;;;;126.00;70.53;;;;;;;;;;4956987;28;20578;-36
2022/10/20 06:09:35;;;;;;;124.53;69.33;;;;;;;;;;4953592;28;20223;-36
2022/10/20 06:12:01;;;;;;;145.73;79.27;;;;;;;;;;4951744;28;20353;-36
2022/10/20 06:14:27;;;;;;;130.87;72.17;;;;;;;;;;4952899;28;20579;-36
2022/10/20 06:16:54;;;;;;;139.23;76.93;;;;;;;;;;4951248;28;20233;-36
2022/10/20 06:19:20;;;;;;;149.40;80.10;;;;;;;;;;4953781;28;20639;-36
2022/10/20 06:21:46;;;;;;;125.30;71.67;;;;;;;;;;4955167;28;20189;-36
2022/10/20 06:24:12;;;;;;;125.50;75.17;;;;;;;;;;4951920;28;20189;-36
2022/10/20 06:26:38;;;;;;;135.97;77.07;;;;;;;;;;4951420;28;20178;-35
2022/10/20 06:29:10;;;;;;;122.63;73.20;;;;;;;;;;4950162;28;20213;-37
2022/10/20 06:31:46;;;;;;;124.80;73.20;;;;;;;;;;4955028;28;20170;-37
2022/10/20 06:34:20;;;;;;;141.83;79.97;;;;;;;;;;4957491;28;20665;-36
2022/10/20 06:36:46;;;;;;;129.27;74.80;;;;;;;;;;4957510;28;20658;-36
2022/10/20 06:39:13;;;;;;;126.33;76.50;;;;;;;;;;4953250;28;20186;-36
2022/10/20 06:41:40;;;;;;;141.23;81.07;;;;;;;;;;4953058;28;20192;-35
2022/10/20 06:44:06;;;;;;;129.07;77.23;;;;;;;;;;4948942;28;20520;-36
2022/10/20 06:46:34;;;;;;;154.60;83.20;;;;;;;;;;4958588;28;20244;-36
2022/10/20 06:49:02;;;;;;;141.37;83.47;;;;;;;;;;4951466;28;20320;-36
2022/10/20 06:51:28;;;;;;;126.33;76.97;;;;;;;;;;4948227;28;20216;-36
2022/10/20 06:53:54;;;;;;;134.87;78.33;;;;;;;;;;4949764;28;20185;-35
2022/10/20 06:56:22;;;;;;;128.50;77.07;;;;;;;;;;4952103;28;20182;-36
2022/10/20 06:58:50;;;;;;;168.80;89.97;;;;;;;;;;4945110;28;20221;-36
2022/10/20 07:01:24;;;;;;;169.73;93.37;;;;;;;;;;4957397;28;20187;-36
2022/10/20 07:03:51;;;;;;;156.83;89.30;;;;;;;;;;4948474;28;20175;-36
2022/10/20 07:06:19;;;;;;;173.20;94.27;;;;;;;;;;4953944;28;20202;-36
2022/10/20 07:08:46;;;;;;;177.80;93.97;;;;;;;;;;4956670;28;20252;-36
2022/10/20 07:11:13;;;;;;;173.73;93.17;;;;;;;;;;4954423;28;20373;-36
2022/10/20 07:13:40;;;;;;;169.00;93.17;;;;;;;;;;4953061;28;20519;-36
2022/10/20 07:16:07;;;;;;;163.30;89.70;;;;;;;;;;4953020;28;20183;-36
2022/10/20 07:18:33;;;;;;;169.07;93.07;;;;;;;;;;4953870;28;20572;-36
2022/10/20 07:21:00;;;;;;;158.70;88.87;;;;;;;;;;4952134;28;20600;-36
2022/10/20 07:23:27;;;;;;;148.60;83.53;;;;;;;;;;4960482;28;20260;-36
2022/10/20 07:25:59;;;;;;;150.73;83.90;;;;;;;;;;4956756;28;20629;-36
2022/10/20 07:28:25;;;;;;;171.93;93.20;;;;;;;;;;4951602;28;20190;-37
2022/10/20 07:30:52;;;;;;;159.10;87.77;;;;;;;;;;4952730;28;20677;-36
2022/10/20 07:33:18;;;;;;;141.77;84.17;;;;;;;;;;4952249;28;20182;-37
2022/10/20 07:35:44;;;;;;;154.30;90.67;;;;;;;;;;4951267;28;20202;-36
2022/10/20 07:38:10;;;;;;;144.60;87.53;;;;;;;;;;4956122;28;20174;-36
2022/10/20 07:40:36;;;;;;;162.13;90.53;;;;;;;;;;4957972;28;20193;-36
2022/10/20 07:43:02;;;;;;;149.93;88.20;;;;;;;;;;4953388;28;20501;-36
2022/10/20 07:45:28;;;;;;;156.30;88.37;;;;;;;;;;4950484;28;20189;-36
2022/10/20 07:47:54;;;;;;;159.93;88.43;;;;;;;;;;4961022;28;20700;-36
2022/10/20 07:50:20;;;;;;;159.33;87.33;;;;;;;;;;4951164;28;20206;-36
2022/10/20 07:52:50;;;;;;;151.70;88.77;;;;;;;;;;4960388;28;20174;-36
2022/10/20 07:55:16;;;;;;;162.10;89.87;;;;;;;;;;4955158;28;20559;-37
2022/10/20 07:57:42;;;;;;;168.70;91.93;;;;;;;;;;4953724;28;20176;-36
2022/10/20 08:00:08;;;;;;;144.73;83.37;;;;;;;;;;4954902;28;20182;-36
2022/10/20 08:02:34;;;;;;;154.83;89.03;;;;;;;;;;4952934;28;20298;-37
2022/10/20 08:05:00;;;;;;;153.47;91.03;;;;;;;;;;4956814;28;20178;-36
2022/10/20 08:07:27;;;;;;;176.57;94.77;;;;;;;;;;4957664;28;20201;-37
2022/10/20 08:09:53;;;;;;;175.30;98.03;;;;;;;;;;4956311;28;20596;-36
2022/10/20 08:12:19;;;;;;;164.23;92.80;;;;;;;;;;4952666;28;20322;-36
2022/10/20 08:14:45;;;;;;;175.47;99.47;;;;;;;;;;4944080;28;20718;-36
2022/10/20 08:17:11;;;;;;;179.20;100.80;;;;;;;;;;4949936;28;20310;-36
2022/10/20 08:19:37;;;;;;;170.57;95.43;;;;;;;;;;4951411;28;20189;-37
2022/10/20 08:22:03;;;;;;;176.80;98.30;;;;;;;;;;4947535;28;20830;-36
2022/10/20 08:24:29;;;;;;;170.50;97.33;;;;;;;;;;4949074;28;20175;-36
2022/10/20 08:26:55;;;;;;;171.23;99.53;;;;;;;;;;4959655;28;20178;-36
2022/10/20 08:29:21;;;;;;;168.17;97.20;;;;;;;;;;4959689;28;20753;-36
2022/10/20 08:31:48;;;;;;;162.47;95.60;;;;;;;;;;4957928;28;20575;-36
2022/10/20 08:34:14;;;;;;;157.90;95.73;;;;;;;;;;4956329;28;20170;-36
2022/10/20 08:36:40;;;;;;;173.77;102.27;;;;;;;;;;4948605;28;20282;-36
2022/10/20 08:39:06;;;;;;;176.00;99.00;;;;;;;;;;4957794;28;20718;-36
2022/10/20 08:41:34;;;;;;;183.10;102.67;;;;;;;;;;4958328;28;20292;-35
2022/10/20 08:44:01;;;;;;;186.93;104.50;;;;;;;;;;4955773;28;20828;-37
2022/10/20 08:46:30;;;;;;;192.27;106.30;;;;;;;;;;4954246;28;20412;-36
2022/10/20 08:48:56;;;;;;;188.20;107.33;;;;;;;;;;4960503;28;20284;-36
2022/10/20 08:51:24;;;;;;;165.43;96.30;;;;;;;;;;4956721;28;20674;-37
2022/10/20 08:53:51;;;;;;;166.17;98.13;;;;;;;;;;4954050;28;20189;-36
2022/10/20 08:56:19;;;;;;;172.57;103.20;;;;;;;;;;4952098;28;20287;-36
2022/10/20 08:58:45;;;;;;;176.43;103.30;;;;;;;;;;4959632;28;20202;-36
2022/10/20 09:01:20;;;;;;;177.30;104.00;;;;;;;;;;4955256;28;20178;-36
2022/10/20 09:03:49;;;;;;;175.40;106.40;;;;;;;;;;4952959;28;20186;-36
2022/10/20 09:06:15;;;;;;;171.77;102.00;;;;;;;;;;4955594;28;20786;-36
2022/10/20 09:08:42;;;;;;;163.67;96.83;;;;;;;;;;4960120;28;20178;-36
2022/10/20 09:11:13;;;;;;;166.67;97.93;;;;;;;;;;4955944;28;20178;-36
2022/10/20 09:13:39;;;;;;;161.80;97.60;;;;;;;;;;4955942;28;20847;-37
2022/10/20 09:16:11;;;;;;;149.50;93.57;;;;;;;;;;4954139;28;20211;-36
2022/10/20 09:18:37;;;;;;;160.97;92.83;;;;;;;;;;4956104;28;20361;-37
2022/10/20 09:21:14;;;;;;;145.67;90.37;;;;;;;;;;4955716;28;20174;-36
2022/10/20 09:23:42;;;;;;;139.70;85.07;;;;;;;;;;4953833;28;20174;-37
2022/10/20 09:26:28;;;;;;;137.70;85.50;;;;;;;;;;4953063;28;20536;-37
2022/10/20 09:29:03;;;;;;;137.97;85.67;;;;;;;;;;4953132;28;20214;-37
2022/10/20 09:31:33;;;;;;;128.77;79.87;;;;;;;;;;4953361;28;20182;-37
2022/10/20 09:33:59;;;;;;;120.57;75.80;;;;;;;;;;4952998;28;20178;-37
2022/10/20 09:36:29;;;;;;;131.50;80.20;;;;;;;;;;4953194;28;20181;-37
2022/10/20 09:38:55;;;;;;;128.43;78.53;;;;;;;;;;4959374;28;20182;-37
2022/10/20 09:41:23;;;;;;;138.53;85.07;;;;;;;;;;4955370;28;20558;-37
2022/10/20 09:43:54;;;;;;;139.47;87.10;;;;;;;;;;4955255;28;20186;-37
2022/10/20 09:46:25;;;;;;;153.33;88.73;;;;;;;;;;4958059;28;20179;-37
2022/10/20 09:48:51;;;;;;;146.80;90.40;;;;;;;;;;4960679;28;20398;-36
2022/10/20 09:51:28;;;;;;;145.50;85.40;;;;;;;;;;4955846;28;20599;-37
2022/10/20 09:54:04;;;;;;;129.23;80.60;;;;;;;;;;4953340;28;20177;-37
2022/10/20 09:56:35;;;;;;;124.83;78.50;;;;;;;;;;4960451;28;20185;-37
2022/10/20 09:59:02;;;;;;;121.47;78.37;;;;;;;;;;4960382;28;20177;-37
2022/10/20 10:01:28;;;;;;;121.47;77.90;;;;;;;;;;4956272;28;20256;-37
2022/10/20 10:04:00;;;;;;;115.90;74.23;;;;;;;;;;4958836;28;20468;-37
2022/10/20 10:06:29;;;;;;;124.43;77.60;;;;;;;;;;4957563;28;20218;-37
2022/10/20 10:08:56;;;;;;;120.27;74.50;;;;;;;;;;4949795;28;20969;-37
2022/10/20 10:11:25;;;;;;;126.77;76.77;;;;;;;;;;4952117;28;20169;-36
2022/10/20 10:13:52;;;;;;;118.77;74.23;;;;;;;;;;4951419;28;20293;-37
2022/10/20 10:16:23;;;;;;;117.30;73.87;;;;;;;;;;4958936;28;20181;-37
2022/10/20 10:19:00;;;;;;;113.53;69.80;;;;;;;;;;4953510;28;20193;-37
2022/10/20 10:21:27;;;;;;;131.53;80.90;;;;;;;;;;4952429;28;20194;-37
2022/10/20 10:23:54;;;;;;;127.00;74.47;;;;;;;;;;4956710;28;20455;-36
2022/10/20 10:26:39;;;;;;;131.00;79.27;;;;;;;;;;4953238;28;20296;-36
2022/10/20 10:29:15;;;;;;;121.77;75.83;;;;;;;;;;4950457;28;20252;-37
2022/10/20 10:31:46;;;;;;;126.57;80.47;;;;;;;;;;4951555;28;21000;-36
2022/10/20 10:34:12;;;;;;;129.93;80.43;;;;;;;;;;4956609;28;20181;-37
2022/10/20 10:36:38;;;;;;;133.77;83.37;;;;;;;;;;4953506;28;20175;-37
2022/10/20 10:39:06;;;;;;;130.00;77.47;;;;;;;;;;4952885;28;20190;-37
2022/10/20 10:41:50;;;;;;;130.33;80.80;;;;;;;;;;4952985;28;20181;-37
2022/10/20 10:44:21;;;;;;;123.33;79.20;;;;;;;;;;4947927;28;20531;-37
2022/10/20 10:47:02;;;;;;;130.90;81.53;;;;;;;;;;4958048;28;20783;-34
2022/10/20 10:49:28;;;;;;;132.20;82.07;;;;;;;;;;4961174;28;20209;-34
2022/10/20 10:51:54;;;;;;;135.13;82.53;;;;;;;;;;4959074;28;20565;-34
2022/10/20 10:54:20;;;;;;;124.83;80.70;;;;;;;;;;4956352;28;20217;-36
2022/10/20 10:56:46;;;;;;;135.33;82.93;;;;;;;;;;4957739;28;20179;-37
2022/10/20 10:59:15;;;;;;;132.93;80.43;;;;;;;;;;4956053;28;20178;-36
2022/10/20 11:01:59;;;;;;;133.43;83.30;;;;;;;;;;4958021;28;20604;-37
2022/10/20 11:04:43;;;;;;;130.77;82.40;;;;;;;;;;4956347;28;20177;-36
2022/10/20 11:07:23;;;;;;;130.37;82.80;;;;;;;;;;4956287;28;20186;-37
2022/10/20 11:09:59;;;;;;;127.50;81.17;;;;;;;;;;4955241;28;20201;-36
2022/10/20 11:12:31;;;;;;;135.43;82.00;;;;;;;;;;4959004;28;20605;-37
2022/10/20 11:15:03;;;;;;;134.93;82.00;;;;;;;;;;4955444;28;20277;-37
2022/10/20 11:17:29;;;;;;;129.90;80.67;;;;;;;;;;4954837;28;20178;-36
2022/10/20 11:20:12;;;;;;;137.43;85.40;;;;;;;;;;4958602;28;20178;-37
2022/10/20 11:22:55;;;;;;;140.50;85.87;;;;;;;;;;4958493;28;20178;-36
2022/10/20 11:25:30;;;;;;;134.50;82.00;;;;;;;;;;4960500;28;20190;-36
2022/10/20 11:27:57;;;;;;;139.93;87.17;;;;;;;;;;4965218;28;20843;-37
2022/10/20 11:30:26;;;;;;;119.40;78.53;;;;;;;;;;4958757;28;20193;-36
2022/10/20 11:32:52;;;;;;;127.27;84.40;;;;;;;;;;4957138;28;20554;-37
2022/10/20 11:35:23;;;;;;;130.57;84.53;;;;;;;;;;4955648;28;20269;-37
2022/10/20 11:37:49;;;;;;;133.70;85.77;;;;;;;;;;4961893;28;21018;-37
2022/10/20 11:40:21;;;;;;;122.10;79.63;;;;;;;;;;4954331;28;20178;-35
2022/10/20 11:42:53;;;;;;;121.17;79.63;;;;;;;;;;4955890;28;20189;-35
2022/10/20 11:45:34;;;;;;;128.73;86.10;;;;;;;;;;4961272;28;20591;-34
2022/10/20 11:48:20;;;;;;;121.47;79.80;;;;;;;;;;4957149;28;21185;-34
2022/10/20 11:50:52;;;;;;;116.07;78.23;;;;;;;;;;4953887;28;20310;-35
2022/10/20 11:53:41;;;;;;;111.40;74.17;;;;;;;;;;4955067;28;20826;-35
2022/10/20 11:56:34;;;;;;;104.07;69.60;;;;;;;;;;4958486;28;20629;-34
2022/10/20 11:59:19;;;;;;;107.63;73.43;;;;;;;;;;4953282;28;20717;-35
2022/10/20 12:01:45;;;;;;;115.33;78.17;;;;;;;;;;4953578;28;20352;-35
2022/10/20 12:04:30;;;;;;;110.83;75.63;;;;;;;;;;4959641;28;20543;-35
2022/10/20 12:07:15;;;;;;;107.70;71.63;;;;;;;;;;4957283;28;20189;-35
2022/10/20 12:09:48;;;;;;;107.70;73.03;;;;;;;;;;4951549;28;20291;-34
2022/10/20 12:12:44;;;;;;;113.77;71.50;;;;;;;;;;4955730;28;20531;-35
2022/10/20 12:15:21;;;;;;;104.43;69.27;;;;;;;;;;4951253;28;20206;-35
2022/10/20 12:17:48;;;;;;;93.33;61.07;;;;;;;;;;4956304;28;20854;-35
2022/10/20 12:20:20;;;;;;;94.77;64.73;;;;;;;;;;4955066;28;20190;-34
2022/10/20 12:22:49;;;;;;;82.67;57.97;;;;;;;;;;4953210;28;20500;-35
2022/10/20 12:25:24;;;;;;;88.37;61.67;;;;;;;;;;4956253;28;20183;-35
2022/10/20 12:28:08;;;;;;;99.47;66.87;;;;;;;;;;4955341;28;20544;-34
2022/10/20 12:30:37;;;;;;;94.67;64.97;;;;;;;;;;4953014;28;20964;-35
2022/10/20 12:33:20;;;;;;;100.73;67.63;;;;;;;;;;4954174;28;20649;-34
2022/10/20 12:36:12;;;;;;;97.57;63.63;;;;;;;;;;4955955;28;20782;-35
2022/10/20 12:38:39;;;;;;;102.40;68.13;;;;;;;;;;4945475;28;20182;-34
2022/10/20 12:41:07;;;;;;;106.97;70.87;;;;;;;;;;4954753;28;20184;-35
2022/10/20 12:44:00;;;;;;;94.87;63.03;;;;;;;;;;4960322;28;20179;-35
2022/10/20 12:46:30;;;;;;;91.87;60.53;;;;;;;;;;4953167;28;20350;-36
2022/10/20 12:48:58;;;;;;;93.30;61.73;;;;;;;;;;4959323;28;20186;-36
2022/10/20 12:51:48;;;;;;;92.03;59.87;;;;;;;;;;4958316;28;20209;-36
2022/10/20 12:54:26;;;;;;;84.57;55.60;;;;;;;;;;4954055;28;20515;-35
2022/10/20 12:56:56;;;;;;;81.73;57.30;;;;;;;;;;4957232;28;20186;-36
2022/10/20 12:59:33;;;;;;;80.07;54.20;;;;;;;;;;4958996;28;20209;-35
2022/10/20 13:02:08;;;;;;;84.10;59.30;;;;;;;;;;4955273;28;20649;-36
2022/10/20 13:04:53;;;;;;;85.03;57.83;;;;;;;;;;4956696;28;20189;-36
2022/10/20 13:07:38;;;;;;;92.33;61.80;;;;;;;;;;4957463;28;20415;-36
2022/10/20 13:10:23;;;;;;;80.93;55.87;;;;;;;;;;4950842;28;20305;-36
2022/10/20 13:12:49;;;;;;;78.90;55.90;;;;;;;;;;4954623;28;20405;-36
2022/10/20 13:15:17;;;;;;;85.50;57.27;;;;;;;;;;4957901;28;20174;-36
2022/10/20 13:17:55;;;;;;;89.77;59.60;;;;;;;;;;4957471;28;20177;-36
2022/10/20 13:20:25;;;;;;;81.97;56.90;;;;;;;;;;4951669;28;20492;-35
2022/10/20 13:22:55;;;;;;;84.53;57.23;;;;;;;;;;4955702;28;20649;-36
2022/10/20 13:25:27;;;;;;;92.17;62.63;;;;;;;;;;4953581;28;21148;-36
2022/10/20 13:28:02;;;;;;;85.27;57.77;;;;;;;;;;4950924;28;20663;-35
2022/10/20 13:30:29;;;;;;;76.90;55.23;;;;;;;;;;4952809;28;20208;-36
2022/10/20 13:33:03;;;;;;;89.37;58.80;;;;;;;;;;4954676;28;20209;-36
2022/10/20 13:35:36;;;;;;;87.23;57.90;;;;;;;;;;4955322;28;20248;-36
2022/10/20 13:38:12;;;;;;;82.87;57.57;;;;;;;;;;4951492;28;20638;-36
2022/10/20 13:40:42;;;;;;;85.30;57.83;;;;;;;;;;4951546;28;20189;-36
2022/10/20 13:43:27;;;;;;;85.83;57.33;;;;;;;;;;4954592;28;21039;-36
2022/10/20 13:46:00;;;;;;;82.70;57.30;;;;;;;;;;4951687;28;20273;-35
2022/10/20 13:48:47;;;;;;;87.67;60.17;;;;;;;;;;4943695;28;20463;-36
2022/10/20 13:51:19;;;;;;;90.00;61.53;;;;;;;;;;4953972;28;20217;-36
2022/10/20 13:53:46;;;;;;;88.77;59.17;;;;;;;;;;4955141;28;20424;-36
2022/10/20 13:56:15;;;;;;;85.70;61.07;;;;;;;;;;4951754;28;20284;-36
2022/10/20 13:58:42;;;;;;;97.73;63.47;;;;;;;;;;4955178;28;20740;-35
2022/10/20 14:01:18;;;;;;;91.70;61.10;;;;;;;;;;4953292;28;20662;-36
2022/10/20 14:03:45;;;;;;;92.17;59.70;;;;;;;;;;4949078;28;20175;-36
2022/10/20 14:06:26;;;;;;;91.50;59.57;;;;;;;;;;4957370;28;20601;-36
2022/10/20 14:08:56;;;;;;;95.07;61.70;;;;;;;;;;4956296;28;20174;-36
2022/10/20 14:11:23;;;;;;;96.77;62.57;;;;;;;;;;4943797;28;20268;-36
2022/10/20 14:13:49;;;;;;;86.77;57.97;;;;;;;;;;4952719;28;20178;-36
2022/10/20 14:16:21;;;;;;;79.77;55.90;;;;;;;;;;4954104;28;20174;-36
2022/10/20 14:19:04;;;;;;;79.00;53.83;;;;;;;;;;4951355;28;20221;-36